sensor_id;sensor_type;location;lat;lon;timestamp;P1;durP1;ratioP1;P2;durP2;ratioP2
3733;SDS011;1882;52.256;8.874;2023-03-03T00:02:27;31.27;;;14.90;;
3733;SDS011;1882;52.256;8.874;2023-03-03T00:04:53;33.47;;;15.43;;
3733;SDS011;1882;52.256;8.874;2023-03-03T00:07:24;33.23;;;14.20;;
3733;SDS011;1882;52.256;8.874;2023-03-03T00:09:50;31.07;;;14.73;;
3733;SDS011;1882;52.256;8.874;2023-03-03T00:12:27;28.90;;;14.07;;
3733;SDS011;1882;52.256;8.874;2023-03-03T00:14:55;31.10;;;14.70;;
3733;SDS011;1882;52.256;8.874;2023-03-03T00:19:53;28.50;;;13.70;;
3733;SDS011;1882;52.256;8.874;2023-03-03T00:25:00;34.33;;;14.13;;
3733;SDS011;1882;52.256;8.874;2023-03-03T00:27:50;27.90;;;13.30;;
3733;SDS011;1882;52.256;8.874;2023-03-03T00:30:24;29.23;;;14.40;;
3733;SDS011;1882;52.256;8.874;2023-03-03T00:32:52;29.77;;;14.40;;
3733;SDS011;1882;52.256;8.874;2023-03-03T00:37:59;26.97;;;13.67;;
3733;SDS011;1882;52.256;8.874;2023-03-03T00:40:32;30.40;;;13.90;;
3733;SDS011;1882;52.256;8.874;2023-03-03T00:43:01;31.63;;;14.47;;
3733;SDS011;1882;52.256;8.874;2023-03-03T00:45:51;29.27;;;13.67;;
3733;SDS011;1882;52.256;8.874;2023-03-03T00:48:23;32.40;;;15.10;;
3733;SDS011;1882;52.256;8.874;2023-03-03T00:50:51;34.00;;;15.13;;
3733;SDS011;1882;52.256;8.874;2023-03-03T00:53:26;34.67;;;15.67;;
3733;SDS011;1882;52.256;8.874;2023-03-03T00:55:56;33.70;;;15.10;;
3733;SDS011;1882;52.256;8.874;2023-03-03T00:58:23;32.83;;;15.03;;
3733;SDS011;1882;52.256;8.874;2023-03-03T01:00:52;32.07;;;15.20;;
3733;SDS011;1882;52.256;8.874;2023-03-03T01:03:25;31.77;;;14.83;;
3733;SDS011;1882;52.256;8.874;2023-03-03T01:05:52;29.70;;;13.77;;
3733;SDS011;1882;52.256;8.874;2023-03-03T01:11:13;37.20;;;15.73;;
3733;SDS011;1882;52.256;8.874;2023-03-03T01:13:54;34.47;;;15.77;;
3733;SDS011;1882;52.256;8.874;2023-03-03T01:16:22;39.07;;;16.70;;
3733;SDS011;1882;52.256;8.874;2023-03-03T01:18:49;48.83;;;18.93;;
3733;SDS011;1882;52.256;8.874;2023-03-03T01:21:16;58.87;;;19.10;;
3733;SDS011;1882;52.256;8.874;2023-03-03T01:23:50;52.87;;;18.97;;
3733;SDS011;1882;52.256;8.874;2023-03-03T01:26:17;52.57;;;18.30;;
3733;SDS011;1882;52.256;8.874;2023-03-03T01:28:44;64.30;;;20.63;;
3733;SDS011;1882;52.256;8.874;2023-03-03T01:31:10;68.50;;;20.47;;
3733;SDS011;1882;52.256;8.874;2023-03-03T01:33:41;57.90;;;20.30;;
3733;SDS011;1882;52.256;8.874;2023-03-03T01:36:08;61.77;;;20.10;;
3733;SDS011;1882;52.256;8.874;2023-03-03T01:38:35;59.73;;;20.00;;
3733;SDS011;1882;52.256;8.874;2023-03-03T01:41:03;64.53;;;20.97;;
3733;SDS011;1882;52.256;8.874;2023-03-03T01:43:30;58.23;;;20.37;;
3733;SDS011;1882;52.256;8.874;2023-03-03T01:51:37;81.20;;;22.73;;
3733;SDS011;1882;52.256;8.874;2023-03-03T01:54:14;88.60;;;23.70;;
3733;SDS011;1882;52.256;8.874;2023-03-03T01:56:47;92.90;;;24.60;;
3733;SDS011;1882;52.256;8.874;2023-03-03T01:59:16;94.70;;;26.53;;
3733;SDS011;1882;52.256;8.874;2023-03-03T02:01:47;94.03;;;26.33;;
3733;SDS011;1882;52.256;8.874;2023-03-03T02:04:14;98.43;;;26.60;;
3733;SDS011;1882;52.256;8.874;2023-03-03T02:06:46;92.23;;;24.97;;
3733;SDS011;1882;52.256;8.874;2023-03-03T02:12:15;101.87;;;26.33;;
3733;SDS011;1882;52.256;8.874;2023-03-03T02:14:44;90.27;;;25.90;;
3733;SDS011;1882;52.256;8.874;2023-03-03T02:17:10;108.90;;;27.87;;
3733;SDS011;1882;52.256;8.874;2023-03-03T02:22:30;105.87;;;23.30;;
3733;SDS011;1882;52.256;8.874;2023-03-03T02:25:01;87.07;;;22.23;;
3733;SDS011;1882;52.256;8.874;2023-03-03T02:27:30;89.20;;;22.53;;
3733;SDS011;1882;52.256;8.874;2023-03-03T02:30:06;88.93;;;24.53;;
3733;SDS011;1882;52.256;8.874;2023-03-03T02:32:35;77.70;;;22.13;;
3733;SDS011;1882;52.256;8.874;2023-03-03T02:35:19;81.97;;;21.80;;
3733;SDS011;1882;52.256;8.874;2023-03-03T02:38:01;82.63;;;20.97;;
3733;SDS011;1882;52.256;8.874;2023-03-03T02:46:45;89.47;;;23.10;;
3733;SDS011;1882;52.256;8.874;2023-03-03T02:49:16;85.83;;;22.83;;
3733;SDS011;1882;52.256;8.874;2023-03-03T02:51:45;90.63;;;21.80;;
3733;SDS011;1882;52.256;8.874;2023-03-03T02:54:12;85.40;;;22.33;;
3733;SDS011;1882;52.256;8.874;2023-03-03T02:56:44;86.17;;;23.47;;
3733;SDS011;1882;52.256;8.874;2023-03-03T02:59:11;92.00;;;22.30;;
3733;SDS011;1882;52.256;8.874;2023-03-03T03:01:42;94.60;;;23.97;;
3733;SDS011;1882;52.256;8.874;2023-03-03T03:04:21;83.50;;;22.30;;
3733;SDS011;1882;52.256;8.874;2023-03-03T03:06:49;80.47;;;21.17;;
3733;SDS011;1882;52.256;8.874;2023-03-03T03:09:20;78.40;;;22.37;;
3733;SDS011;1882;52.256;8.874;2023-03-03T03:11:49;74.50;;;21.53;;
3733;SDS011;1882;52.256;8.874;2023-03-03T03:14:20;83.13;;;20.90;;
3733;SDS011;1882;52.256;8.874;2023-03-03T03:16:56;96.33;;;22.80;;
3733;SDS011;1882;52.256;8.874;2023-03-03T03:19:23;86.53;;;21.67;;
3733;SDS011;1882;52.256;8.874;2023-03-03T03:21:50;91.17;;;23.70;;
3733;SDS011;1882;52.256;8.874;2023-03-03T03:24:17;89.97;;;23.60;;
3733;SDS011;1882;52.256;8.874;2023-03-03T03:26:53;88.90;;;21.13;;
3733;SDS011;1882;52.256;8.874;2023-03-03T03:29:21;92.73;;;20.70;;
3733;SDS011;1882;52.256;8.874;2023-03-03T03:31:51;74.73;;;21.77;;
3733;SDS011;1882;52.256;8.874;2023-03-03T03:34:17;95.80;;;22.73;;
3733;SDS011;1882;52.256;8.874;2023-03-03T03:36:44;82.70;;;22.63;;
3733;SDS011;1882;52.256;8.874;2023-03-03T03:39:13;85.03;;;21.70;;
3733;SDS011;1882;52.256;8.874;2023-03-03T03:41:44;82.83;;;22.30;;
3733;SDS011;1882;52.256;8.874;2023-03-03T03:44:11;87.67;;;23.10;;
3733;SDS011;1882;52.256;8.874;2023-03-03T03:46:38;95.27;;;21.73;;
3733;SDS011;1882;52.256;8.874;2023-03-03T03:49:06;74.23;;;20.70;;
3733;SDS011;1882;52.256;8.874;2023-03-03T03:51:36;77.80;;;20.40;;
3733;SDS011;1882;52.256;8.874;2023-03-03T03:54:19;75.97;;;20.50;;
3733;SDS011;1882;52.256;8.874;2023-03-03T03:56:52;81.27;;;20.97;;
3733;SDS011;1882;52.256;8.874;2023-03-03T03:59:20;75.67;;;19.70;;
3733;SDS011;1882;52.256;8.874;2023-03-03T04:01:47;85.03;;;21.10;;
3733;SDS011;1882;52.256;8.874;2023-03-03T04:04:16;73.83;;;20.60;;
3733;SDS011;1882;52.256;8.874;2023-03-03T04:06:46;72.53;;;22.07;;
3733;SDS011;1882;52.256;8.874;2023-03-03T04:09:12;98.27;;;24.00;;
3733;SDS011;1882;52.256;8.874;2023-03-03T04:11:40;87.93;;;23.67;;
3733;SDS011;1882;52.256;8.874;2023-03-03T04:14:08;86.73;;;23.87;;
3733;SDS011;1882;52.256;8.874;2023-03-03T04:16:35;84.43;;;23.60;;
3733;SDS011;1882;52.256;8.874;2023-03-03T04:19:05;90.37;;;23.43;;
3733;SDS011;1882;52.256;8.874;2023-03-03T04:21:37;89.97;;;23.37;;
3733;SDS011;1882;52.256;8.874;2023-03-03T04:24:08;87.23;;;24.30;;
3733;SDS011;1882;52.256;8.874;2023-03-03T04:26:36;77.77;;;23.30;;
3733;SDS011;1882;52.256;8.874;2023-03-03T04:29:06;78.67;;;21.90;;
3733;SDS011;1882;52.256;8.874;2023-03-03T04:31:36;92.90;;;22.40;;
3733;SDS011;1882;52.256;8.874;2023-03-03T04:34:08;88.97;;;24.30;;
3733;SDS011;1882;52.256;8.874;2023-03-03T04:36:35;94.57;;;23.33;;
3733;SDS011;1882;52.256;8.874;2023-03-03T04:39:02;95.73;;;23.67;;
3733;SDS011;1882;52.256;8.874;2023-03-03T04:41:29;96.67;;;23.73;;
3733;SDS011;1882;52.256;8.874;2023-03-03T04:44:09;84.10;;;22.90;;
3733;SDS011;1882;52.256;8.874;2023-03-03T04:46:35;93.30;;;23.30;;
3733;SDS011;1882;52.256;8.874;2023-03-03T04:49:06;89.63;;;22.97;;
3733;SDS011;1882;52.256;8.874;2023-03-03T04:51:38;82.63;;;21.87;;
3733;SDS011;1882;52.256;8.874;2023-03-03T04:54:06;108.10;;;25.30;;
3733;SDS011;1882;52.256;8.874;2023-03-03T04:56:39;103.57;;;24.43;;
3733;SDS011;1882;52.256;8.874;2023-03-03T04:59:06;82.80;;;23.13;;
3733;SDS011;1882;52.256;8.874;2023-03-03T05:01:36;84.63;;;22.83;;
3733;SDS011;1882;52.256;8.874;2023-03-03T05:04:13;93.77;;;23.13;;
3733;SDS011;1882;52.256;8.874;2023-03-03T05:06:40;85.63;;;22.27;;
3733;SDS011;1882;52.256;8.874;2023-03-03T05:09:07;82.40;;;21.90;;
3733;SDS011;1882;52.256;8.874;2023-03-03T05:11:43;85.60;;;22.87;;
3733;SDS011;1882;52.256;8.874;2023-03-03T05:14:10;75.30;;;21.20;;
3733;SDS011;1882;52.256;8.874;2023-03-03T05:16:37;80.57;;;21.57;;
3733;SDS011;1882;52.256;8.874;2023-03-03T05:19:13;90.20;;;22.87;;
3733;SDS011;1882;52.256;8.874;2023-03-03T05:21:40;76.40;;;21.37;;
3733;SDS011;1882;52.256;8.874;2023-03-03T05:24:12;87.87;;;21.60;;
3733;SDS011;1882;52.256;8.874;2023-03-03T05:26:42;77.50;;;21.37;;
3733;SDS011;1882;52.256;8.874;2023-03-03T05:29:09;87.27;;;23.00;;
3733;SDS011;1882;52.256;8.874;2023-03-03T05:31:38;81.33;;;22.30;;
3733;SDS011;1882;52.256;8.874;2023-03-03T05:34:16;78.20;;;22.97;;
3733;SDS011;1882;52.256;8.874;2023-03-03T05:36:43;88.97;;;25.13;;
3733;SDS011;1882;52.256;8.874;2023-03-03T05:39:09;88.80;;;24.50;;
3733;SDS011;1882;52.256;8.874;2023-03-03T05:41:36;78.70;;;23.23;;
3733;SDS011;1882;52.256;8.874;2023-03-03T05:44:10;84.00;;;20.97;;
3733;SDS011;1882;52.256;8.874;2023-03-03T05:46:38;85.40;;;23.00;;
3733;SDS011;1882;52.256;8.874;2023-03-03T05:49:05;86.87;;;23.80;;
3733;SDS011;1882;52.256;8.874;2023-03-03T05:51:52;74.40;;;21.30;;
3733;SDS011;1882;52.256;8.874;2023-03-03T05:54:26;79.67;;;22.87;;
3733;SDS011;1882;52.256;8.874;2023-03-03T05:56:53;73.10;;;21.10;;
3733;SDS011;1882;52.256;8.874;2023-03-03T05:59:22;77.63;;;22.37;;
3733;SDS011;1882;52.256;8.874;2023-03-03T06:02:00;80.17;;;22.13;;
3733;SDS011;1882;52.256;8.874;2023-03-03T06:04:27;73.40;;;21.73;;
3733;SDS011;1882;52.256;8.874;2023-03-03T06:06:53;75.13;;;20.77;;
3733;SDS011;1882;52.256;8.874;2023-03-03T06:09:29;76.57;;;20.13;;
3733;SDS011;1882;52.256;8.874;2023-03-03T06:11:55;65.37;;;19.03;;
3733;SDS011;1882;52.256;8.874;2023-03-03T06:14:22;68.70;;;19.40;;
3733;SDS011;1882;52.256;8.874;2023-03-03T06:17:01;64.80;;;19.03;;
3733;SDS011;1882;52.256;8.874;2023-03-03T06:19:28;65.90;;;17.77;;
3733;SDS011;1882;52.256;8.874;2023-03-03T06:21:55;70.33;;;19.37;;
3733;SDS011;1882;52.256;8.874;2023-03-03T06:28:19;59.00;;;17.47;;
3733;SDS011;1882;52.256;8.874;2023-03-03T06:30:52;61.77;;;18.20;;
3733;SDS011;1882;52.256;8.874;2023-03-03T06:33:27;61.40;;;18.90;;
3733;SDS011;1882;52.256;8.874;2023-03-03T06:35:54;64.07;;;17.87;;
3733;SDS011;1882;52.256;8.874;2023-03-03T06:38:30;68.60;;;18.80;;
3733;SDS011;1882;52.256;8.874;2023-03-03T06:40:57;67.97;;;19.10;;
3733;SDS011;1882;52.256;8.874;2023-03-03T06:43:23;76.87;;;20.00;;
3733;SDS011;1882;52.256;8.874;2023-03-03T06:45:50;67.13;;;19.53;;
3733;SDS011;1882;52.256;8.874;2023-03-03T06:51:51;60.50;;;17.77;;
3733;SDS011;1882;52.256;8.874;2023-03-03T06:54:19;60.40;;;17.40;;
3733;SDS011;1882;52.256;8.874;2023-03-03T07:00:24;58.87;;;17.07;;
3733;SDS011;1882;52.256;8.874;2023-03-03T07:05:55;56.93;;;17.37;;
3733;SDS011;1882;52.256;8.874;2023-03-03T07:08:22;54.57;;;15.60;;
3733;SDS011;1882;52.256;8.874;2023-03-03T07:14:47;66.00;;;18.80;;
3733;SDS011;1882;52.256;8.874;2023-03-03T07:17:24;61.57;;;19.60;;
3733;SDS011;1882;52.256;8.874;2023-03-03T07:20:00;63.07;;;18.63;;
3733;SDS011;1882;52.256;8.874;2023-03-03T07:22:27;63.83;;;19.27;;
3733;SDS011;1882;52.256;8.874;2023-03-03T07:24:59;61.43;;;16.87;;
3733;SDS011;1882;52.256;8.874;2023-03-03T07:27:28;49.90;;;15.67;;
3733;SDS011;1882;52.256;8.874;2023-03-03T07:30:10;52.27;;;15.43;;
3733;SDS011;1882;52.256;8.874;2023-03-03T07:33:15;58.40;;;16.20;;
3733;SDS011;1882;52.256;8.874;2023-03-03T07:42:25;67.83;;;18.80;;
3733;SDS011;1882;52.256;8.874;2023-03-03T07:49:19;58.23;;;17.17;;
3733;SDS011;1882;52.256;8.874;2023-03-03T07:51:52;65.77;;;18.37;;
3733;SDS011;1882;52.256;8.874;2023-03-03T08:13:39;73.60;;;21.70;;
3733;SDS011;1882;52.256;8.874;2023-03-03T08:18:47;67.27;;;19.57;;
3733;SDS011;1882;52.256;8.874;2023-03-03T08:21:24;76.00;;;20.80;;
3733;SDS011;1882;52.256;8.874;2023-03-03T08:23:52;73.57;;;21.07;;
3733;SDS011;1882;52.256;8.874;2023-03-03T08:29:24;68.03;;;20.37;;
3733;SDS011;1882;52.256;8.874;2023-03-03T08:32:36;71.77;;;21.57;;
3733;SDS011;1882;52.256;8.874;2023-03-03T08:42:52;74.50;;;20.67;;
3733;SDS011;1882;52.256;8.874;2023-03-03T09:02:54;64.97;;;20.90;;
3733;SDS011;1882;52.256;8.874;2023-03-03T09:10:20;63.90;;;20.17;;
3733;SDS011;1882;52.256;8.874;2023-03-03T09:13:05;63.30;;;20.60;;
3733;SDS011;1882;52.256;8.874;2023-03-03T09:15:48;70.57;;;21.80;;
3733;SDS011;1882;52.256;8.874;2023-03-03T09:33:43;72.70;;;22.70;;
3733;SDS011;1882;52.256;8.874;2023-03-03T09:37:49;70.60;;;22.10;;
3733;SDS011;1882;52.256;8.874;2023-03-03T09:57:19;71.97;;;23.00;;
3733;SDS011;1882;52.256;8.874;2023-03-03T10:10:52;60.57;;;20.23;;
3733;SDS011;1882;52.256;8.874;2023-03-03T10:48:22;56.10;;;19.50;;
3733;SDS011;1882;52.256;8.874;2023-03-03T10:51:23;54.30;;;18.37;;
3733;SDS011;1882;52.256;8.874;2023-03-03T11:02:58;64.13;;;21.23;;
3733;SDS011;1882;52.256;8.874;2023-03-03T11:08:10;54.37;;;19.70;;
3733;SDS011;1882;52.256;8.874;2023-03-03T11:16:51;46.10;;;16.77;;
3733;SDS011;1882;52.256;8.874;2023-03-03T11:22:38;47.23;;;16.80;;
3733;SDS011;1882;52.256;8.874;2023-03-03T11:25:32;48.17;;;16.20;;
3733;SDS011;1882;52.256;8.874;2023-03-03T11:31:03;47.00;;;16.00;;
3733;SDS011;1882;52.256;8.874;2023-03-03T11:34:15;44.77;;;16.90;;
3733;SDS011;1882;52.256;8.874;2023-03-03T11:36:56;42.77;;;16.83;;
3733;SDS011;1882;52.256;8.874;2023-03-03T11:39:40;45.33;;;17.13;;
3733;SDS011;1882;52.256;8.874;2023-03-03T11:42:35;43.10;;;16.17;;
3733;SDS011;1882;52.256;8.874;2023-03-03T11:45:17;45.67;;;16.37;;
3733;SDS011;1882;52.256;8.874;2023-03-03T11:47:52;42.10;;;15.80;;
3733;SDS011;1882;52.256;8.874;2023-03-03T11:50:57;40.93;;;15.20;;
3733;SDS011;1882;52.256;8.874;2023-03-03T11:53:43;36.00;;;14.63;;
3733;SDS011;1882;52.256;8.874;2023-03-03T12:01:49;40.47;;;14.47;;
3733;SDS011;1882;52.256;8.874;2023-03-03T12:04:28;37.47;;;14.93;;
3733;SDS011;1882;52.256;8.874;2023-03-03T12:13:19;39.63;;;15.00;;
3733;SDS011;1882;52.256;8.874;2023-03-03T12:15:54;35.57;;;14.33;;
3733;SDS011;1882;52.256;8.874;2023-03-03T12:26:56;36.17;;;14.90;;
3733;SDS011;1882;52.256;8.874;2023-03-03T12:40:24;31.00;;;13.77;;
3733;SDS011;1882;52.256;8.874;2023-03-03T12:43:23;32.30;;;13.27;;
3733;SDS011;1882;52.256;8.874;2023-03-03T12:48:40;36.80;;;13.63;;
3733;SDS011;1882;52.256;8.874;2023-03-03T12:54:07;32.50;;;13.27;;
3733;SDS011;1882;52.256;8.874;2023-03-03T12:57:03;30.07;;;13.00;;
3733;SDS011;1882;52.256;8.874;2023-03-03T13:06:34;30.83;;;14.20;;
3733;SDS011;1882;52.256;8.874;2023-03-03T13:19:58;33.37;;;14.07;;
3733;SDS011;1882;52.256;8.874;2023-03-03T13:28:30;36.60;;;14.47;;
3733;SDS011;1882;52.256;8.874;2023-03-03T13:31:04;29.60;;;13.23;;
3733;SDS011;1882;52.256;8.874;2023-03-03T13:33:41;32.40;;;13.87;;
3733;SDS011;1882;52.256;8.874;2023-03-03T13:36:21;33.70;;;14.03;;
3733;SDS011;1882;52.256;8.874;2023-03-03T13:39:31;32.30;;;12.73;;
3733;SDS011;1882;52.256;8.874;2023-03-03T13:44:48;32.67;;;13.33;;
3733;SDS011;1882;52.256;8.874;2023-03-03T13:50:25;28.27;;;12.47;;
3733;SDS011;1882;52.256;8.874;2023-03-03T13:55:38;29.80;;;12.00;;
3733;SDS011;1882;52.256;8.874;2023-03-03T13:58:24;29.60;;;12.63;;
3733;SDS011;1882;52.256;8.874;2023-03-03T14:01:23;32.67;;;12.67;;
3733;SDS011;1882;52.256;8.874;2023-03-03T14:04:47;29.60;;;12.93;;
3733;SDS011;1882;52.256;8.874;2023-03-03T14:07:44;31.10;;;13.23;;
3733;SDS011;1882;52.256;8.874;2023-03-03T14:12:57;30.17;;;12.60;;
3733;SDS011;1882;52.256;8.874;2023-03-03T14:20:47;30.47;;;13.10;;
3733;SDS011;1882;52.256;8.874;2023-03-03T14:23:17;33.20;;;13.53;;
3733;SDS011;1882;52.256;8.874;2023-03-03T14:28:16;27.73;;;12.40;;
3733;SDS011;1882;52.256;8.874;2023-03-03T14:30:46;30.20;;;13.70;;
3733;SDS011;1882;52.256;8.874;2023-03-03T14:38:24;37.07;;;15.67;;
3733;SDS011;1882;52.256;8.874;2023-03-03T14:41:11;36.33;;;14.97;;
3733;SDS011;1882;52.256;8.874;2023-03-03T14:43:39;32.40;;;14.17;;
3733;SDS011;1882;52.256;8.874;2023-03-03T14:49:01;32.37;;;13.87;;
3733;SDS011;1882;52.256;8.874;2023-03-03T14:54:26;34.17;;;13.67;;
3733;SDS011;1882;52.256;8.874;2023-03-03T14:57:22;30.80;;;13.50;;
3733;SDS011;1882;52.256;8.874;2023-03-03T15:07:55;36.83;;;15.53;;
3733;SDS011;1882;52.256;8.874;2023-03-03T15:10:30;42.50;;;16.13;;
3733;SDS011;1882;52.256;8.874;2023-03-03T15:18:25;50.93;;;18.43;;
3733;SDS011;1882;52.256;8.874;2023-03-03T15:21:02;48.03;;;16.57;;
3733;SDS011;1882;52.256;8.874;2023-03-03T15:29:14;46.97;;;16.40;;
3733;SDS011;1882;52.256;8.874;2023-03-03T15:31:53;42.43;;;15.03;;
3733;SDS011;1882;52.256;8.874;2023-03-03T15:42:48;46.80;;;16.83;;
3733;SDS011;1882;52.256;8.874;2023-03-03T15:45:56;46.30;;;16.37;;
3733;SDS011;1882;52.256;8.874;2023-03-03T15:51:41;47.70;;;16.27;;
3733;SDS011;1882;52.256;8.874;2023-03-03T16:02:51;37.80;;;14.87;;
3733;SDS011;1882;52.256;8.874;2023-03-03T16:08:10;43.50;;;17.07;;
3733;SDS011;1882;52.256;8.874;2023-03-03T16:11:05;45.20;;;16.30;;
3733;SDS011;1882;52.256;8.874;2023-03-03T16:13:37;43.50;;;16.27;;
3733;SDS011;1882;52.256;8.874;2023-03-03T16:27:22;45.00;;;15.73;;
3733;SDS011;1882;52.256;8.874;2023-03-03T16:30:22;48.07;;;14.93;;
3733;SDS011;1882;52.256;8.874;2023-03-03T16:33:49;39.67;;;14.60;;
3733;SDS011;1882;52.256;8.874;2023-03-03T16:38:47;47.00;;;15.73;;
3733;SDS011;1882;52.256;8.874;2023-03-03T16:41:28;43.00;;;15.13;;
3733;SDS011;1882;52.256;8.874;2023-03-03T16:52:47;43.40;;;15.33;;
3733;SDS011;1882;52.256;8.874;2023-03-03T16:58:37;40.27;;;13.53;;
3733;SDS011;1882;52.256;8.874;2023-03-03T17:04:28;49.10;;;16.30;;
3733;SDS011;1882;52.256;8.874;2023-03-03T17:09:54;46.20;;;16.97;;
3733;SDS011;1882;52.256;8.874;2023-03-03T17:15:27;40.87;;;15.73;;
3733;SDS011;1882;52.256;8.874;2023-03-03T17:28:55;44.17;;;16.50;;
3733;SDS011;1882;52.256;8.874;2023-03-03T17:31:52;48.70;;;16.17;;
3733;SDS011;1882;52.256;8.874;2023-03-03T17:42:42;43.50;;;15.07;;
3733;SDS011;1882;52.256;8.874;2023-03-03T17:45:12;45.33;;;16.60;;
3733;SDS011;1882;52.256;8.874;2023-03-03T17:47:59;38.87;;;15.40;;
3733;SDS011;1882;52.256;8.874;2023-03-03T17:51:10;41.83;;;16.27;;
3733;SDS011;1882;52.256;8.874;2023-03-03T18:03:04;45.10;;;15.90;;
3733;SDS011;1882;52.256;8.874;2023-03-03T18:17:35;36.47;;;14.90;;
3733;SDS011;1882;52.256;8.874;2023-03-03T18:20:21;48.87;;;17.67;;
3733;SDS011;1882;52.256;8.874;2023-03-03T18:25:54;36.67;;;15.50;;
3733;SDS011;1882;52.256;8.874;2023-03-03T18:29:26;38.10;;;15.47;;
3733;SDS011;1882;52.256;8.874;2023-03-03T18:55:57;34.27;;;13.30;;
3733;SDS011;1882;52.256;8.874;2023-03-03T19:01:04;35.20;;;15.63;;
3733;SDS011;1882;52.256;8.874;2023-03-03T19:09:04;35.20;;;15.23;;
3733;SDS011;1882;52.256;8.874;2023-03-03T19:11:50;41.33;;;16.63;;
3733;SDS011;1882;52.256;8.874;2023-03-03T19:16:54;44.53;;;18.03;;
3733;SDS011;1882;52.256;8.874;2023-03-03T19:19:29;48.07;;;19.83;;
3733;SDS011;1882;52.256;8.874;2023-03-03T19:22:32;54.70;;;20.87;;
3733;SDS011;1882;52.256;8.874;2023-03-03T19:25:29;48.80;;;20.40;;
3733;SDS011;1882;52.256;8.874;2023-03-03T19:31:00;48.70;;;19.60;;
3733;SDS011;1882;52.256;8.874;2023-03-03T19:49:56;22.80;;;9.83;;
3733;SDS011;1882;52.256;8.874;2023-03-03T19:52:36;15.03;;;8.53;;
3733;SDS011;1882;52.256;8.874;2023-03-03T20:04:34;10.93;;;6.37;;
3733;SDS011;1882;52.256;8.874;2023-03-03T20:21:37;11.50;;;4.50;;
3733;SDS011;1882;52.256;8.874;2023-03-03T20:32:46;12.03;;;5.10;;
3733;SDS011;1882;52.256;8.874;2023-03-03T20:35:27;11.10;;;4.33;;
3733;SDS011;1882;52.256;8.874;2023-03-03T20:43:51;9.03;;;4.37;;
3733;SDS011;1882;52.256;8.874;2023-03-03T20:54:43;12.00;;;4.63;;
3733;SDS011;1882;52.256;8.874;2023-03-03T20:57:30;21.43;;;4.10;;
3733;SDS011;1882;52.256;8.874;2023-03-03T21:00:14;8.60;;;4.00;;
3733;SDS011;1882;52.256;8.874;2023-03-03T21:02:56;15.50;;;5.30;;
3733;SDS011;1882;52.256;8.874;2023-03-03T21:06:04;10.30;;;4.80;;
3733;SDS011;1882;52.256;8.874;2023-03-03T21:08:43;14.90;;;5.90;;
3733;SDS011;1882;52.256;8.874;2023-03-03T21:11:11;14.00;;;5.50;;
3733;SDS011;1882;52.256;8.874;2023-03-03T21:13:40;18.83;;;4.83;;
3733;SDS011;1882;52.256;8.874;2023-03-03T21:21:25;15.00;;;4.70;;
3733;SDS011;1882;52.256;8.874;2023-03-03T21:23:54;15.37;;;4.70;;
3733;SDS011;1882;52.256;8.874;2023-03-03T21:29:30;16.60;;;4.90;;
3733;SDS011;1882;52.256;8.874;2023-03-03T21:37:02;12.30;;;4.60;;
3733;SDS011;1882;52.256;8.874;2023-03-03T21:39:34;15.70;;;4.83;;
3733;SDS011;1882;52.256;8.874;2023-03-03T21:42:12;16.63;;;5.20;;
3733;SDS011;1882;52.256;8.874;2023-03-03T21:44:41;20.03;;;5.00;;
3733;SDS011;1882;52.256;8.874;2023-03-03T21:47:16;9.13;;;4.67;;
3733;SDS011;1882;52.256;8.874;2023-03-03T21:49:44;14.33;;;4.30;;
3733;SDS011;1882;52.256;8.874;2023-03-03T21:52:12;21.53;;;5.10;;
3733;SDS011;1882;52.256;8.874;2023-03-03T21:54:42;18.80;;;4.80;;
3733;SDS011;1882;52.256;8.874;2023-03-03T21:57:12;15.03;;;5.03;;
3733;SDS011;1882;52.256;8.874;2023-03-03T21:59:39;18.00;;;4.20;;
3733;SDS011;1882;52.256;8.874;2023-03-03T22:02:06;23.20;;;5.30;;
3733;SDS011;1882;52.256;8.874;2023-03-03T22:04:33;23.33;;;4.70;;
3733;SDS011;1882;52.256;8.874;2023-03-03T22:07:08;18.07;;;4.77;;
3733;SDS011;1882;52.256;8.874;2023-03-03T22:09:35;14.50;;;4.97;;
3733;SDS011;1882;52.256;8.874;2023-03-03T22:12:03;15.60;;;3.90;;
3733;SDS011;1882;52.256;8.874;2023-03-03T22:14:32;14.80;;;4.33;;
3733;SDS011;1882;52.256;8.874;2023-03-03T22:17:01;18.40;;;4.67;;
3733;SDS011;1882;52.256;8.874;2023-03-03T22:19:28;11.10;;;4.20;;
3733;SDS011;1882;52.256;8.874;2023-03-03T22:21:55;18.30;;;4.70;;
3733;SDS011;1882;52.256;8.874;2023-03-03T22:24:21;16.77;;;4.83;;
3733;SDS011;1882;52.256;8.874;2023-03-03T22:26:57;16.73;;;4.23;;
3733;SDS011;1882;52.256;8.874;2023-03-03T22:29:24;23.00;;;4.47;;
3733;SDS011;1882;52.256;8.874;2023-03-03T22:31:51;14.57;;;4.60;;
3733;SDS011;1882;52.256;8.874;2023-03-03T22:34:18;14.50;;;4.00;;
3733;SDS011;1882;52.256;8.874;2023-03-03T22:36:51;20.00;;;4.50;;
3733;SDS011;1882;52.256;8.874;2023-03-03T22:39:18;17.73;;;4.50;;
3733;SDS011;1882;52.256;8.874;2023-03-03T22:41:45;18.60;;;4.70;;
3733;SDS011;1882;52.256;8.874;2023-03-03T22:44:12;19.60;;;4.30;;
3733;SDS011;1882;52.256;8.874;2023-03-03T22:46:41;17.90;;;4.13;;
3733;SDS011;1882;52.256;8.874;2023-03-03T22:49:08;13.73;;;3.90;;
3733;SDS011;1882;52.256;8.874;2023-03-03T22:51:37;23.67;;;4.53;;
3733;SDS011;1882;52.256;8.874;2023-03-03T22:54:17;20.93;;;4.97;;
3733;SDS011;1882;52.256;8.874;2023-03-03T22:56:44;18.53;;;4.60;;
3733;SDS011;1882;52.256;8.874;2023-03-03T22:59:10;17.13;;;4.30;;
3733;SDS011;1882;52.256;8.874;2023-03-03T23:01:45;19.33;;;4.53;;
3733;SDS011;1882;52.256;8.874;2023-03-03T23:04:12;15.60;;;4.43;;
3733;SDS011;1882;52.256;8.874;2023-03-03T23:06:42;17.10;;;3.77;;
3733;SDS011;1882;52.256;8.874;2023-03-03T23:09:10;20.47;;;4.60;;
3733;SDS011;1882;52.256;8.874;2023-03-03T23:11:41;16.47;;;3.83;;
3733;SDS011;1882;52.256;8.874;2023-03-03T23:14:08;11.07;;;3.70;;
3733;SDS011;1882;52.256;8.874;2023-03-03T23:16:35;16.23;;;4.03;;
3733;SDS011;1882;52.256;8.874;2023-03-03T23:19:01;20.80;;;4.90;;
3733;SDS011;1882;52.256;8.874;2023-03-03T23:21:28;17.17;;;3.83;;
3733;SDS011;1882;52.256;8.874;2023-03-03T23:24:00;23.73;;;4.77;;
3733;SDS011;1882;52.256;8.874;2023-03-03T23:26:26;16.93;;;4.03;;
3733;SDS011;1882;52.256;8.874;2023-03-03T23:28:53;20.77;;;3.67;;
3733;SDS011;1882;52.256;8.874;2023-03-03T23:31:20;21.57;;;4.13;;
3733;SDS011;1882;52.256;8.874;2023-03-03T23:33:46;21.60;;;3.97;;
3733;SDS011;1882;52.256;8.874;2023-03-03T23:36:20;16.40;;;3.70;;
3733;SDS011;1882;52.256;8.874;2023-03-03T23:38:47;21.20;;;3.80;;
3733;SDS011;1882;52.256;8.874;2023-03-03T23:41:14;28.27;;;4.37;;
3733;SDS011;1882;52.256;8.874;2023-03-03T23:43:41;18.27;;;3.67;;
3733;SDS011;1882;52.256;8.874;2023-03-03T23:46:10;22.80;;;3.67;;
3733;SDS011;1882;52.256;8.874;2023-03-03T23:48:37;19.00;;;4.13;;
3733;SDS011;1882;52.256;8.874;2023-03-03T23:51:04;17.53;;;4.07;;
3733;SDS011;1882;52.256;8.874;2023-03-03T23:53:31;19.23;;;3.80;;
3733;SDS011;1882;52.256;8.874;2023-03-03T23:55:58;25.80;;;3.50;;
3733;SDS011;1882;52.256;8.874;2023-03-03T23:58:24;12.63;;;3.80;;
